createdAt,value
2018-03-09T00:00:17.988Z,99391
2018-03-09T00:06:01.885Z,99387
2018-03-09T00:08:30.139Z,99373
2018-03-09T00:10:58.450Z,99370
2018-03-09T00:13:26.669Z,99380
2018-03-09T00:15:54.949Z,99376
2018-03-09T00:21:24.334Z,99369
2018-03-09T00:24:18.857Z,99357
2018-03-09T00:26:47.110Z,99353
2018-03-09T00:29:16.148Z,99351
2018-03-09T00:31:44.572Z,99355
2018-03-09T00:34:13.453Z,99369
2018-03-09T00:36:41.684Z,99359
2018-03-09T00:39:09.910Z,99371
2018-03-09T00:41:38.363Z,99362
2018-03-09T00:44:19.896Z,99368
2018-03-09T00:46:49.136Z,99361
2018-03-09T00:49:17.428Z,99355
2018-03-09T00:51:45.640Z,99354
2018-03-09T00:54:15.356Z,99353
2018-03-09T00:56:43.579Z,99361
2018-03-09T01:02:19.751Z,99356
2018-03-09T01:04:47.975Z,99346
2018-03-09T01:07:17.016Z,99343
2018-03-09T01:09:45.274Z,99342
2018-03-09T01:12:19.900Z,99345
2018-03-09T01:14:48.162Z,99346
2018-03-09T01:17:16.377Z,99347
2018-03-09T01:19:44.588Z,99345
2018-03-09T01:22:13.616Z,99354
2018-03-09T01:24:41.843Z,99340
2018-03-09T01:27:20.906Z,99343
2018-03-09T01:30:19.530Z,99329
2018-03-09T01:32:48.082Z,99340
2018-03-09T01:35:16.360Z,99339
2018-03-09T01:37:44.654Z,99346
2018-03-09T01:40:13.487Z,99341
2018-03-09T01:42:42.503Z,99329
2018-03-09T01:45:10.736Z,99322
2018-03-09T01:47:38.990Z,99328
2018-03-09T01:50:20.340Z,99321
2018-03-09T01:53:18.343Z,99326
2018-03-09T01:58:46.642Z,99322
2018-03-09T02:01:21.279Z,99300
2018-03-09T02:03:49.597Z,99297
2018-03-09T02:06:20.846Z,99283
2018-03-09T02:09:19.220Z,99285
2018-03-09T02:11:48.216Z,99286
2018-03-09T02:14:20.390Z,99277
2018-03-09T02:16:48.602Z,99276
2018-03-09T02:19:17.655Z,99280
2018-03-09T02:21:45.925Z,99272
2018-03-09T02:24:14.140Z,99286
2018-03-09T02:26:42.420Z,99280
2018-03-09T02:29:10.687Z,99286
2018-03-09T02:31:38.915Z,99276
2018-03-09T02:34:08.025Z,99274
2018-03-09T02:39:26.189Z,99289
2018-03-09T02:42:33.617Z,99289
2018-03-09T02:45:19.221Z,99297
2018-03-09T02:47:47.547Z,99299
2018-03-09T02:50:21.809Z,99299
2018-03-09T02:52:50.125Z,99288
2018-03-09T02:55:18.328Z,99292
2018-03-09T02:57:46.587Z,99292
2018-03-09T03:00:14.804Z,99298
2018-03-09T03:02:43.120Z,99318
2018-03-09T03:05:21.171Z,99310
2018-03-09T03:08:20.024Z,99306
2018-03-09T03:11:18.863Z,99322
2018-03-09T03:16:48.525Z,99315
2018-03-09T03:22:21.476Z,99313
2018-03-09T03:24:49.690Z,99312
2018-03-09T03:27:18.663Z,99325
2018-03-09T03:29:46.922Z,99323
2018-03-09T03:32:21.337Z,99333
2018-03-09T03:34:49.709Z,99342
2018-03-09T03:40:18.697Z,99358
2018-03-09T03:46:18.163Z,99380
2018-03-09T03:48:46.381Z,99367
2018-03-09T03:51:21.968Z,99380
2018-03-09T03:53:50.181Z,99375
2018-03-09T03:56:18.496Z,99373
2018-03-09T04:01:48.227Z,99380
2018-03-09T04:04:16.450Z,99380
2018-03-09T04:06:44.770Z,99389
2018-03-09T04:09:13.041Z,99393
2018-03-09T04:11:41.308Z,99383
2018-03-09T04:17:11.354Z,99406
2018-03-09T04:19:39.566Z,99411
2018-03-09T04:22:07.771Z,99417
2018-03-09T04:24:36.014Z,99415
2018-03-09T04:27:20.945Z,99429
2018-03-09T04:29:49.197Z,99416
2018-03-09T04:32:18.172Z,99430
2018-03-09T04:34:46.385Z,99425
2018-03-09T04:37:14.662Z,99421
2018-03-09T04:39:42.925Z,99433
2018-03-09T04:42:20.024Z,99428
2018-03-09T04:44:48.233Z,99445
2018-03-09T04:47:16.456Z,99442
2018-03-09T04:49:45.774Z,99442
2018-03-09T04:52:13.999Z,99449
2018-03-09T04:54:42.205Z,99449
2018-03-09T04:57:11.301Z,99454
2018-03-09T04:59:39.522Z,99454
2018-03-09T05:02:21.306Z,99465
2018-03-09T05:04:49.548Z,99470
2018-03-09T05:07:17.862Z,99469
2018-03-09T05:12:46.611Z,99465
2018-03-09T05:15:15.593Z,99470
2018-03-09T05:17:43.796Z,99473
2018-03-09T05:20:12.053Z,99487
2018-03-09T05:22:41.038Z,99496
2018-03-09T05:25:10.054Z,99491
2018-03-09T05:27:38.318Z,99489
2018-03-09T05:30:07.289Z,99497
2018-03-09T05:32:36.171Z,99504
2018-03-09T05:35:04.422Z,99494
2018-03-09T05:40:33.867Z,99502
2018-03-09T05:43:02.089Z,99505
2018-03-09T05:45:30.292Z,99508
2018-03-09T05:47:58.633Z,99507
2018-03-09T05:50:26.899Z,99506
2018-03-09T05:52:55.906Z,99509
2018-03-09T05:55:24.160Z,99518
2018-03-09T05:57:53.138Z,99514
2018-03-09T06:00:21.433Z,99518
2018-03-09T06:02:49.682Z,99519
2018-03-09T06:05:20.855Z,99521
2018-03-09T06:07:49.059Z,99525
2018-03-09T06:10:17.295Z,99530
2018-03-09T06:15:46.279Z,99534
2018-03-09T06:18:14.492Z,99535
2018-03-09T06:20:42.704Z,99542
2018-03-09T06:23:10.951Z,99540
2018-03-09T06:25:39.169Z,99547
2018-03-09T06:28:07.379Z,99545
2018-03-09T06:30:36.393Z,99552
2018-03-09T06:33:19.749Z,99548
2018-03-09T06:35:48.101Z,99553
2018-03-09T06:38:16.313Z,99543
2018-03-09T06:40:44.556Z,99546
2018-03-09T06:43:12.796Z,99561
2018-03-09T06:45:41.841Z,99569
2018-03-09T06:48:19.839Z,99571
2018-03-09T06:50:48.114Z,99575
2018-03-09T06:53:16.334Z,99580
2018-03-09T06:55:44.547Z,99573
2018-03-09T06:58:12.807Z,99571
2018-03-09T07:00:41.047Z,99589
2018-03-09T07:03:09.363Z,99580
2018-03-09T07:05:37.720Z,99590
2018-03-09T07:08:19.538Z,99582
2018-03-09T07:13:47.723Z,99588
2018-03-09T07:16:21.966Z,99585
2018-03-09T07:19:18.946Z,99585
2018-03-09T07:25:18.582Z,99584
2018-03-09T07:27:46.788Z,99590
2018-03-09T07:30:21.188Z,99596
2018-03-09T07:33:19.833Z,99594
2018-03-09T07:35:48.085Z,99590
2018-03-09T07:38:20.173Z,99605
2018-03-09T07:41:18.557Z,99601
2018-03-09T07:43:46.764Z,99592
2018-03-09T07:46:20.993Z,99603
2018-03-09T07:49:19.788Z,99603
2018-03-09T07:51:48.800Z,99605
2018-03-09T07:54:20.580Z,99600
2018-03-09T07:57:19.171Z,99608
2018-03-09T07:59:47.381Z,99603
2018-03-09T08:02:15.615Z,99600
2018-03-09T08:07:44.624Z,99606
2018-03-09T08:10:20.038Z,99604
2018-03-09T08:13:18.691Z,99608
2018-03-09T08:15:46.934Z,99607
2018-03-09T08:18:15.212Z,99611
2018-03-09T08:23:43.561Z,99608
2018-03-09T08:26:12.565Z,99613
2018-03-09T08:31:41.004Z,99615
2018-03-09T08:34:09.341Z,99609
2018-03-09T08:36:37.617Z,99609
2018-03-09T08:39:21.763Z,99606
2018-03-09T08:41:50.074Z,99606
2018-03-09T08:44:18.285Z,99617
2018-03-09T08:50:18.417Z,99614
2018-03-09T08:52:46.732Z,99613
2018-03-09T08:55:15.009Z,99609
2018-03-09T08:57:43.280Z,99610
2018-03-09T09:00:19.560Z,99603
2018-03-09T09:02:47.809Z,99608
2018-03-09T09:05:16.809Z,99611
2018-03-09T09:07:45.298Z,99604
2018-03-09T09:10:13.555Z,99614
2018-03-09T09:12:42.534Z,99619
2018-03-09T09:15:10.840Z,99617
2018-03-09T09:17:39.105Z,99613
2018-03-09T09:20:08.082Z,99617
2018-03-09T09:22:37.066Z,99618
2018-03-09T09:25:05.577Z,99623
2018-03-09T09:27:33.911Z,99617
2018-03-09T09:30:02.324Z,99617
2018-03-09T09:32:31.462Z,99625
2018-03-09T09:35:18.982Z,99624
2018-03-09T09:37:47.332Z,99620
2018-03-09T09:40:15.566Z,99625
2018-03-09T09:42:44.020Z,99629
2018-03-09T09:45:12.619Z,99626
2018-03-09T09:47:40.841Z,99630
2018-03-09T09:50:22.086Z,99638
2018-03-09T09:52:50.330Z,99627
2018-03-09T09:55:18.547Z,99634
2018-03-09T09:57:47.665Z,99623
2018-03-09T10:00:15.976Z,99630
2018-03-09T10:02:44.216Z,99634
2018-03-09T10:05:12.464Z,99627
2018-03-09T10:07:40.796Z,99638
2018-03-09T10:10:09.207Z,99629
2018-03-09T10:12:38.978Z,99622
2018-03-09T10:15:07.245Z,99632
2018-03-09T10:20:35.330Z,99621
2018-03-09T10:23:03.587Z,99619
2018-03-09T10:25:32.589Z,99608
2018-03-09T10:28:00.845Z,99611
2018-03-09T10:30:29.821Z,99616
2018-03-09T10:32:58.138Z,99619
2018-03-09T10:35:26.378Z,99620
2018-03-09T10:37:55.357Z,99609
2018-03-09T10:40:23.675Z,99613
2018-03-09T10:42:51.978Z,99602
2018-03-09T10:45:20.240Z,99605
2018-03-09T10:47:48.500Z,99621
2018-03-09T10:50:16.772Z,99612
2018-03-09T10:52:45.788Z,99621
2018-03-09T10:55:14.005Z,99613
2018-03-09T10:57:42.326Z,99614
2018-03-09T11:00:21.078Z,99612
2018-03-09T11:02:49.308Z,99617
2018-03-09T11:05:21.927Z,99613
2018-03-09T11:07:50.166Z,99607
2018-03-09T11:10:18.428Z,99614
2018-03-09T11:15:47.619Z,99615
2018-03-09T11:18:16.066Z,99613
2018-03-09T11:20:44.313Z,99615
2018-03-09T11:23:12.557Z,99616
2018-03-09T11:25:41.524Z,99614
2018-03-09T11:28:22.473Z,99623
2018-03-09T11:30:50.722Z,99616
2018-03-09T11:33:20.631Z,99615
2018-03-09T11:35:49.641Z,99613
2018-03-09T11:38:17.862Z,99608
2018-03-09T11:40:46.082Z,99619
2018-03-09T11:43:14.330Z,99604
2018-03-09T11:45:43.323Z,99604
2018-03-09T11:48:20.422Z,99594
2018-03-09T11:50:49.466Z,99599
2018-03-09T11:53:17.678Z,99596
2018-03-09T11:58:47.130Z,99601
2018-03-09T12:01:22.056Z,99585
2018-03-09T12:03:50.363Z,99612
2018-03-09T12:06:18.568Z,99599
2018-03-09T12:08:47.606Z,99596
2018-03-09T12:11:22.205Z,99593
2018-03-09T12:13:51.192Z,99598
2018-03-09T12:23:26.102Z,99599
2018-03-09T12:25:54.448Z,99599
2018-03-09T12:28:23.429Z,99602
2018-03-09T12:30:52.458Z,99610
2018-03-09T12:33:20.719Z,99603
2018-03-09T12:35:49.722Z,99618
2018-03-09T12:38:21.495Z,99613
2018-03-09T12:41:19.727Z,99618
2018-03-09T12:43:48.790Z,99614
2018-03-09T12:46:20.621Z,99611
2018-03-09T12:49:19.317Z,99611
2018-03-09T12:51:47.673Z,99613
2018-03-09T12:54:22.024Z,99609
2018-03-09T12:57:20.011Z,99613
2018-03-09T13:00:27.592Z,99607
2018-03-09T13:03:19.432Z,99615
2018-03-09T13:05:47.694Z,99618
2018-03-09T13:08:22.436Z,99623
2018-03-09T13:11:19.316Z,99615
2018-03-09T13:18:20.644Z,99615
2018-03-09T13:21:19.309Z,99617
2018-03-09T13:23:47.654Z,99626
2018-03-09T13:26:22.309Z,99619
2018-03-09T13:29:19.178Z,99610
2018-03-09T13:31:48.689Z,99614
2018-03-09T13:34:22.975Z,99622
2018-03-09T13:36:51.273Z,99616
2018-03-09T13:39:19.621Z,99615
2018-03-09T13:41:47.900Z,99636
2018-03-09T13:44:17.035Z,99630
2018-03-09T13:46:45.261Z,99640
2018-03-09T13:49:20.445Z,99627
2018-03-09T13:51:48.727Z,99625
2018-03-09T13:54:16.936Z,99627
2018-03-09T13:56:46.015Z,99625
2018-03-09T13:59:14.230Z,99619
2018-03-09T14:01:42.445Z,99616
2018-03-09T14:04:12.328Z,99618
2018-03-09T14:09:41.359Z,99626
2018-03-09T14:12:09.564Z,99619
2018-03-09T14:14:38.635Z,99628
2018-03-09T14:17:19.573Z,99633
2018-03-09T14:19:47.795Z,99623
2018-03-09T14:22:16.122Z,99634
2018-03-09T14:24:44.473Z,99638
2018-03-09T14:27:13.516Z,99637
2018-03-09T14:29:41.794Z,99645
2018-03-09T14:32:10.089Z,99640
2018-03-09T14:34:38.292Z,99645
2018-03-09T14:37:07.851Z,99645
2018-03-09T14:39:36.164Z,99648
2018-03-09T14:42:19.526Z,99641
2018-03-09T14:44:47.806Z,99634
2018-03-09T14:47:16.072Z,99643
2018-03-09T14:49:44.290Z,99639
2018-03-09T14:52:12.609Z,99650
2018-03-09T14:54:41.603Z,99653
2018-03-09T14:57:10.617Z,99656
2018-03-09T14:59:38.992Z,99654
2018-03-09T15:02:07.213Z,99649
2018-03-09T15:04:35.418Z,99654
2018-03-09T15:07:04.445Z,99651
2018-03-09T15:09:32.660Z,99631
2018-03-09T15:12:00.875Z,99654
2018-03-09T15:14:30.698Z,99658
2018-03-09T15:17:19.516Z,99666
2018-03-09T15:19:48.859Z,99662
2018-03-09T15:22:17.081Z,99673
2018-03-09T15:24:45.384Z,99675
2018-03-09T15:27:15.230Z,99672
2018-03-09T15:29:43.588Z,99680
2018-03-09T15:32:12.162Z,99690
2018-03-09T15:34:40.422Z,99695
2018-03-09T15:37:09.951Z,99675
2018-03-09T15:39:38.180Z,99680
2018-03-09T15:42:06.511Z,99682
2018-03-09T15:44:34.756Z,99688
2018-03-09T15:47:03.749Z,99690
2018-03-09T15:49:32.787Z,99693
2018-03-09T15:52:01.037Z,99685
2018-03-09T15:54:29.258Z,99700
2018-03-09T15:56:57.586Z,99694
2018-03-09T15:59:25.857Z,99701
2018-03-09T16:01:54.174Z,99705
2018-03-09T16:04:22.433Z,99710
2018-03-09T16:07:18.990Z,99706
2018-03-09T16:09:47.253Z,99718
2018-03-09T16:12:21.613Z,99721
2018-03-09T16:14:50.747Z,99721
2018-03-09T16:17:19.016Z,99718
2018-03-09T16:19:47.297Z,99721
2018-03-09T16:22:21.404Z,99719
2018-03-09T16:24:50.084Z,99719
2018-03-09T16:27:18.379Z,99727
2018-03-09T16:35:47.404Z,99722
2018-03-09T16:38:22.133Z,99726
2018-03-09T16:41:20.462Z,99735
2018-03-09T16:46:49.712Z,99732
2018-03-09T16:49:20.255Z,99744
2018-03-09T16:52:18.728Z,99749
2018-03-09T16:54:46.989Z,99752
2018-03-09T16:57:16.002Z,99749
2018-03-09T16:59:44.212Z,99755
2018-03-09T17:02:20.137Z,99753
2018-03-09T17:05:18.872Z,99760
2018-03-09T17:07:47.922Z,99753
2018-03-09T17:10:16.174Z,99765
2018-03-09T17:12:45.152Z,99763
2018-03-09T17:15:13.458Z,99754
2018-03-09T17:17:41.739Z,99760
2018-03-09T17:20:09.961Z,99761
2018-03-09T17:22:38.211Z,99760
2018-03-09T17:25:06.417Z,99773
2018-03-09T17:27:34.937Z,99773
2018-03-09T17:30:03.149Z,99773
2018-03-09T17:32:31.418Z,99775
2018-03-09T17:34:59.766Z,99770
2018-03-09T17:37:27.991Z,99777
2018-03-09T17:39:56.448Z,99777
2018-03-09T17:42:24.708Z,99776
2018-03-09T17:44:53.081Z,99779
2018-03-09T17:47:21.345Z,99776
2018-03-09T17:49:49.892Z,99777
2018-03-09T17:52:22.228Z,99782
2018-03-09T17:54:50.629Z,99781
2018-03-09T17:57:18.953Z,99795
2018-03-09T17:59:47.180Z,99792
2018-03-09T18:02:15.407Z,99796
2018-03-09T18:04:43.708Z,99798
2018-03-09T18:07:11.920Z,99799
2018-03-09T18:09:40.960Z,99794
2018-03-09T18:12:22.195Z,99804
2018-03-09T18:14:51.224Z,99808
2018-03-09T18:17:19.449Z,99804
2018-03-09T18:19:47.669Z,99807
2018-03-09T18:22:15.974Z,99820
2018-03-09T18:24:44.288Z,99810
2018-03-09T18:27:13.424Z,99806
2018-03-09T18:29:41.692Z,99820
2018-03-09T18:32:09.956Z,99818
2018-03-09T18:34:38.240Z,99818
2018-03-09T18:37:06.448Z,99826
2018-03-09T18:39:34.805Z,99830
2018-03-09T18:42:03.107Z,99830
2018-03-09T18:44:31.342Z,99826
2018-03-09T18:46:59.621Z,99832
2018-03-09T18:49:27.828Z,99821
2018-03-09T18:51:56.040Z,99826
2018-03-09T18:54:25.056Z,99827
2018-03-09T18:57:19.853Z,99828
2018-03-09T18:59:48.093Z,99828
2018-03-09T19:02:21.961Z,99834
2018-03-09T19:04:50.248Z,99829
2018-03-09T19:07:18.481Z,99833
2018-03-09T19:09:46.690Z,99826
2018-03-09T19:12:14.951Z,99829
2018-03-09T19:14:43.214Z,99829
2018-03-09T19:17:21.836Z,99834
2018-03-09T19:19:50.057Z,99835
2018-03-09T19:22:21.642Z,99836
2018-03-09T19:25:18.999Z,99842
2018-03-09T19:27:48.023Z,99841
2018-03-09T19:30:22.756Z,99835
2018-03-09T19:32:51.039Z,99843
2018-03-09T19:35:19.262Z,99834
2018-03-09T19:37:49.093Z,99835
2018-03-09T19:40:17.380Z,99846
2018-03-09T19:42:45.755Z,99849
2018-03-09T19:45:20.504Z,99840
2018-03-09T19:47:48.776Z,99849
2018-03-09T19:50:20.392Z,99837
2018-03-09T19:52:49.498Z,99839
2018-03-09T19:55:17.772Z,99849
2018-03-09T19:57:45.978Z,99842
2018-03-09T20:00:14.325Z,99832
2018-03-09T20:02:42.551Z,99842
2018-03-09T20:05:11.549Z,99850
2018-03-09T20:07:39.800Z,99856
2018-03-09T20:10:08.042Z,99844
2018-03-09T20:12:36.255Z,99851
2018-03-09T20:15:04.518Z,99856
2018-03-09T20:17:32.755Z,99849
2018-03-09T20:20:01.804Z,99845
2018-03-09T20:22:30.037Z,99859
2018-03-09T20:24:59.112Z,99851
2018-03-09T20:27:28.120Z,99860
2018-03-09T20:29:56.413Z,99864
2018-03-09T20:32:24.641Z,99860
2018-03-09T20:35:19.525Z,99863
2018-03-09T20:37:47.777Z,99864
2018-03-09T20:40:22.162Z,99864
2018-03-09T20:42:50.419Z,99861
2018-03-09T20:45:19.504Z,99877
2018-03-09T20:47:47.737Z,99869
2018-03-09T20:50:15.967Z,99866
2018-03-09T20:52:44.982Z,99874
2018-03-09T20:55:13.250Z,99871
2018-03-09T20:57:41.501Z,99874
2018-03-09T21:00:10.521Z,99875
2018-03-09T21:02:39.051Z,99885
2018-03-09T21:05:07.382Z,99892
2018-03-09T21:07:35.649Z,99894
2018-03-09T21:10:20.530Z,99898
2018-03-09T21:12:48.916Z,99900
2018-03-09T21:15:17.278Z,99892
2018-03-09T21:17:45.556Z,99895
2018-03-09T21:20:14.661Z,99890
2018-03-09T21:22:42.950Z,99893
2018-03-09T21:25:11.272Z,99896
2018-03-09T21:27:39.573Z,99886
2018-03-09T21:30:11.432Z,99895
2018-03-09T21:32:39.945Z,99897
2018-03-09T21:35:08.173Z,99887
2018-03-09T21:37:37.288Z,99880
2018-03-09T21:40:05.510Z,99889
2018-03-09T21:42:34.501Z,99894
2018-03-09T21:45:02.853Z,99895
2018-03-09T21:47:31.076Z,99881
2018-03-09T21:50:20.370Z,99881
2018-03-09T21:52:48.576Z,99894
2018-03-09T21:55:20.638Z,99875
2018-03-09T21:57:48.886Z,99891
2018-03-09T22:00:17.141Z,99883
2018-03-09T22:02:46.118Z,99883
2018-03-09T22:05:20.450Z,99879
2018-03-09T22:07:48.746Z,99876
2018-03-09T22:10:16.976Z,99862
2018-03-09T22:15:45.961Z,99857
2018-03-09T22:18:20.645Z,99859
2018-03-09T22:21:19.152Z,99856
2018-03-09T22:23:47.609Z,99853
2018-03-09T22:26:22.874Z,99852
2018-03-09T22:28:51.129Z,99853
2018-03-09T22:31:20.722Z,99856
2018-03-09T22:33:51.004Z,99854
2018-03-09T22:36:20.674Z,99861
2018-03-09T22:38:48.889Z,99855
2018-03-09T22:41:23.056Z,99856
2018-03-09T22:43:51.268Z,99849
2018-03-09T22:46:20.872Z,99846
2018-03-09T22:49:19.209Z,99849
2018-03-09T22:51:47.423Z,99846
2018-03-09T22:54:15.678Z,99854
2018-03-09T22:56:43.982Z,99844
2018-03-09T22:59:20.930Z,99850
2018-03-09T23:01:49.151Z,99844
2018-03-09T23:04:17.361Z,99845
2018-03-09T23:06:45.651Z,99846
2018-03-09T23:09:20.845Z,99844
2018-03-09T23:11:49.086Z,99833
2018-03-09T23:14:17.301Z,99847
2018-03-09T23:16:45.576Z,99846
2018-03-09T23:19:21.021Z,99843
2018-03-09T23:22:19.684Z,99849
2018-03-09T23:24:48.016Z,99860
2018-03-09T23:27:22.504Z,99855
2018-03-09T23:29:50.828Z,99852
2018-03-09T23:32:19.767Z,99862
2018-03-09T23:34:47.979Z,99863
2018-03-09T23:37:16.258Z,99853
2018-03-09T23:42:45.194Z,99867
2018-03-09T23:45:20.994Z,99882
2018-03-09T23:48:19.948Z,99870
2018-03-09T23:50:48.195Z,99862
2018-03-09T23:53:16.462Z,99857
2018-03-09T23:55:44.726Z,99868
2018-03-09T23:58:13.014Z,99867
